This is the latest recevied weather packets stored in our database for station/object N8DNY-13. If no packets are shown the sender has not sent any weather packets the latest 10 day(s).
| Time | Temp. | Humidity | Pressure | Rain* | Wind** | Luminosity | Snow |
|---|---|---|---|---|---|---|---|
| 1777735258 | 7.78° C | 58% | 1022.6 hPa | 0 mm | - | 221 W/m² | - |
| 1777709953 | 3.89° C | 81% | 1020.9 hPa | 0 mm | - | 0 W/m² | - |
| 1777708147 | 3.89° C | 83% | 1020.5 hPa | 0 mm | - | 0 W/m² | - |
| 1777700008 | 3.89° C | 95% | 1020.7 hPa | 0 mm | - | 0 W/m² | - |
| 1777697288 | 3.33° C | 95% | 1020.9 hPa | 0 mm | - | 0 W/m² | - |
| 1777693681 | 5° C | 90% | 1020.8 hPa | 0 mm | - | 0 W/m² | - |
| 1777688247 | 5° C | 91% | 1020.4 hPa | 0 mm | - | 0 W/m² | - |
| 1777672878 | 10° C | 64% | 1018.6 hPa | 0 mm | - | 80 W/m² | - |
| 1777671950 | 10° C | 62% | 1018.5 hPa | 0 mm | - | 95 W/m² | - |
| 1777671047 | 10° C | 59% | 1018.5 hPa | 0 mm | - | 97 W/m² | - |
| 1777668327 | 11.11° C | 56% | 1018.1 hPa | 0 mm | - | 475 W/m² | - |
| 1777665608 | 10° C | 61% | 1018.5 hPa | 0 mm | - | 189 W/m² | - |
| 1777655639 | 10.56° C | 70% | 1017.8 hPa | 0 mm | - | 390 W/m² | - |
| 1777652017 | 8.33° C | 84% | 1017.8 hPa | 0 mm | - | 227 W/m² | - |
| 1777645678 | 6.67° C | 94% | 1017.5 hPa | 0 mm | - | 282 W/m² | - |
| 1777635727 | 4.44° C | 96% | 1017.4 hPa | 0 mm | - | 17 W/m² | - |
| 1777620328 | 5.56° C | 91% | 1018.5 hPa | 0 mm | - | 0 W/m² | - |
| 1777617617 | 5.56° C | 86% | 1018.5 hPa | 0 mm | - | 0 W/m² | - |
| 1777615807 | 6.11° C | 81% | 1018.7 hPa | 0 mm | - | 0 W/m² | - |
| 1777610385 | 7.22° C | 70% | 1018.8 hPa | 0 mm | - | 0 W/m² | - |
| 1777607677 | 7.78° C | 66% | 1019.2 hPa | 0 mm | - | 0 W/m² | - |
| 1777603148 | 10° C | 54% | 1019 hPa | 0 mm | - | 0 W/m² | - |
| 1777593192 | 11.67° C | 45% | 1018 hPa | 0 mm | - | 17 W/m² | - |
| 1777590485 | 12.78° C | 45% | 1018.5 hPa | 0 mm | - | 68 W/m² | - |
| 1777586860 | 16.11° C | 38% | 1018.2 hPa | 0 mm | - | 167 W/m² | - |
* Rain latest hour (hover to see other rain measurements)
** Current wind speed in m/s (hover to see current wind gust speed)